createdAt,value
2023-10-19T00:01:29.796Z,7.39
2023-10-19T00:04:34.570Z,7.35
2023-10-19T00:07:42.170Z,7.40
2023-10-19T00:10:49.636Z,7.47
2023-10-19T00:13:52.802Z,7.47
2023-10-19T00:17:01.600Z,7.53
2023-10-19T00:20:23.225Z,7.56
2023-10-19T00:23:30.317Z,7.56
2023-10-19T00:26:33.340Z,7.59
2023-10-19T00:29:41.810Z,7.57
2023-10-19T00:32:44.696Z,7.54
2023-10-19T00:35:48.857Z,7.58
2023-10-19T00:38:54.441Z,7.59
2023-10-19T00:42:00.077Z,7.47
2023-10-19T00:45:06.612Z,7.49
2023-10-19T00:48:12.773Z,7.43
2023-10-19T00:51:28.749Z,7.51
2023-10-19T00:54:48.321Z,7.50
2023-10-19T00:57:51.546Z,7.56
2023-10-19T01:00:56.785Z,7.66
2023-10-19T01:04:07.175Z,7.72
2023-10-19T01:07:29.041Z,7.80
2023-10-19T01:10:33.603Z,7.79
2023-10-19T01:13:36.428Z,7.86
2023-10-19T01:16:40.508Z,7.88
2023-10-19T01:19:59.817Z,7.87
2023-10-19T01:23:10.163Z,7.90
2023-10-19T01:26:21.076Z,7.93
2023-10-19T01:29:37.855Z,8.01
2023-10-19T01:32:53.533Z,8.00
2023-10-19T01:36:15.086Z,8.11
2023-10-19T01:39:21.408Z,8.11
2023-10-19T01:42:27.368Z,8.16
2023-10-19T01:45:31.217Z,8.20
2023-10-19T01:48:37.504Z,8.14
2023-10-19T01:51:43.568Z,8.20
2023-10-19T01:54:46.925Z,8.21
2023-10-19T01:57:49.678Z,8.14
2023-10-19T02:01:04.491Z,8.17
2023-10-19T02:04:10.913Z,8.20
2023-10-19T02:07:19.477Z,8.21
2023-10-19T02:10:23.661Z,8.17
2023-10-19T02:13:26.483Z,8.26
2023-10-19T02:16:33.543Z,8.25
2023-10-19T02:19:36.259Z,8.20
2023-10-19T02:22:41.185Z,8.14
2023-10-19T02:25:44.384Z,8.17
2023-10-19T02:28:48.653Z,8.09
2023-10-19T02:31:52.069Z,8.21
2023-10-19T02:35:10.417Z,8.12
2023-10-19T02:38:13.226Z,8.06
2023-10-19T02:41:22.909Z,8.09
2023-10-19T02:44:33.611Z,8.04
2023-10-19T02:47:36.585Z,8.13
2023-10-19T02:50:43.183Z,8.04
2023-10-19T02:53:55.813Z,8.00
2023-10-19T02:57:08.682Z,8.00
2023-10-19T03:00:15.834Z,7.84
2023-10-19T03:03:18.878Z,7.91
2023-10-19T03:06:25.074Z,7.88
2023-10-19T03:09:27.882Z,7.79
2023-10-19T03:12:44.714Z,7.91
2023-10-19T03:15:47.503Z,7.83
2023-10-19T03:18:58.646Z,7.98
2023-10-19T03:22:07.522Z,8.12
2023-10-19T03:25:33.305Z,8.18
2023-10-19T03:28:36.979Z,8.29
2023-10-19T03:31:47.535Z,8.35
2023-10-19T03:34:55.249Z,8.33
2023-10-19T03:38:02.165Z,8.32
2023-10-19T03:41:10.064Z,8.32
2023-10-19T03:44:25.465Z,8.29
2023-10-19T03:47:41.239Z,8.25
2023-10-19T03:50:46.438Z,8.17
2023-10-19T03:53:56.353Z,8.16
2023-10-19T03:57:03.086Z,8.16
2023-10-19T04:00:12.846Z,8.22
2023-10-19T04:03:16.562Z,8.25
2023-10-19T04:06:21.984Z,8.19
2023-10-19T04:09:30.922Z,8.24
2023-10-19T04:12:36.920Z,8.21
2023-10-19T04:15:39.862Z,8.09
2023-10-19T04:18:47.680Z,8.12
2023-10-19T04:21:59.820Z,8.16
2023-10-19T04:25:04.380Z,8.26
2023-10-19T04:28:08.004Z,8.31
2023-10-19T04:31:15.293Z,8.36
2023-10-19T04:34:22.613Z,8.40
2023-10-19T04:37:25.853Z,8.43
2023-10-19T04:40:28.978Z,8.44
2023-10-19T04:43:42.573Z,8.48
2023-10-19T04:46:48.327Z,8.44
2023-10-19T04:49:53.317Z,8.51
2023-10-19T04:52:56.137Z,8.49
2023-10-19T04:56:02.722Z,8.52
2023-10-19T04:59:06.345Z,8.46
2023-10-19T05:02:09.159Z,8.53
2023-10-19T05:05:12.502Z,8.55
2023-10-19T05:08:17.718Z,8.59
2023-10-19T05:11:20.652Z,8.62
2023-10-19T05:14:26.748Z,8.62
2023-10-19T05:17:29.701Z,8.67
2023-10-19T05:20:34.959Z,8.70
2023-10-19T05:23:38.022Z,8.72
2023-10-19T05:26:41.102Z,8.75
2023-10-19T05:29:43.943Z,8.74
2023-10-19T05:32:51.256Z,8.76
2023-10-19T05:35:54.137Z,8.69
2023-10-19T05:38:59.384Z,8.69
2023-10-19T05:42:02.866Z,8.65
2023-10-19T05:45:09.632Z,8.68
2023-10-19T05:48:14.796Z,8.66
2023-10-19T05:51:20.349Z,8.70
2023-10-19T05:54:25.686Z,8.63
2023-10-19T05:57:29.749Z,8.64
2023-10-19T06:00:33.166Z,8.68
2023-10-19T06:03:36.166Z,8.67
2023-10-19T06:06:39.637Z,8.77
2023-10-19T06:09:42.492Z,8.77
2023-10-19T06:12:52.329Z,8.75
2023-10-19T06:15:55.655Z,8.68
2023-10-19T06:18:58.535Z,8.73
2023-10-19T06:22:01.532Z,8.82
2023-10-19T06:25:07.782Z,8.87
2023-10-19T06:28:13.742Z,8.84
2023-10-19T06:31:22.107Z,8.88
2023-10-19T06:34:26.871Z,8.87
2023-10-19T06:37:30.717Z,8.93
2023-10-19T06:40:40.980Z,8.99
2023-10-19T06:43:48.922Z,9.06
2023-10-19T06:46:56.082Z,9.11
2023-10-19T06:50:00.657Z,9.17
2023-10-19T06:53:07.159Z,9.19
2023-10-19T06:56:20.457Z,9.18
2023-10-19T06:59:26.965Z,9.20
2023-10-19T07:02:34.322Z,9.23
2023-10-19T07:05:41.682Z,9.24
2023-10-19T07:08:56.889Z,9.21
2023-10-19T07:12:04.867Z,9.26
2023-10-19T07:15:28.754Z,9.27
2023-10-19T07:18:34.926Z,9.37
2023-10-19T07:21:43.683Z,9.36
2023-10-19T07:24:50.218Z,9.32
2023-10-19T07:27:54.215Z,9.34
2023-10-19T07:31:01.387Z,9.34
2023-10-19T07:34:07.243Z,9.42
2023-10-19T07:37:16.864Z,9.44
2023-10-19T07:40:20.077Z,9.44
2023-10-19T07:43:29.898Z,9.48
2023-10-19T07:46:33.285Z,9.50
2023-10-19T07:49:42.900Z,9.53
2023-10-19T07:52:50.916Z,9.52
2023-10-19T07:55:54.396Z,9.52
2023-10-19T07:58:58.540Z,9.51
2023-10-19T08:02:03.780Z,9.58
2023-10-19T08:05:08.948Z,9.65
2023-10-19T08:08:15.597Z,9.72
2023-10-19T08:11:19.198Z,9.73
2023-10-19T08:14:27.975Z,9.75
2023-10-19T08:17:31.249Z,9.75
2023-10-19T08:20:39.201Z,9.78
2023-10-19T08:23:46.738Z,9.78
2023-10-19T08:26:49.480Z,9.81
2023-10-19T08:29:52.309Z,9.89
2023-10-19T08:32:55.643Z,9.86
2023-10-19T08:36:04.534Z,9.89
2023-10-19T08:39:09.056Z,9.75
2023-10-19T08:42:11.923Z,9.90
2023-10-19T08:45:15.383Z,9.94
2023-10-19T08:48:18.807Z,9.96
2023-10-19T08:51:21.525Z,10.05
2023-10-19T08:54:30.510Z,10.06
2023-10-19T08:57:33.517Z,10.11
2023-10-19T09:00:58.469Z,10.04
2023-10-19T09:07:57.824Z,10.10
2023-10-19T09:11:08.569Z,10.18
2023-10-19T09:14:14.177Z,10.18
2023-10-19T09:17:19.269Z,10.21
2023-10-19T09:20:31.425Z,10.29
2023-10-19T09:23:35.033Z,10.25
2023-10-19T09:26:38.520Z,10.24
2023-10-19T09:29:42.525Z,10.36
2023-10-19T09:32:50.771Z,10.40
2023-10-19T09:35:58.363Z,10.36
2023-10-19T09:39:04.524Z,10.49
2023-10-19T09:42:14.428Z,10.59
2023-10-19T09:45:21.254Z,10.64
2023-10-19T09:48:25.686Z,10.65
2023-10-19T09:51:36.237Z,10.71
2023-10-19T09:55:02.698Z,10.67
2023-10-19T09:58:17.716Z,10.58
2023-10-19T10:01:23.184Z,10.72
2023-10-19T10:04:33.283Z,10.73
2023-10-19T10:10:44.839Z,10.50
2023-10-19T10:13:52.636Z,10.60
2023-10-19T10:17:06.601Z,10.60
2023-10-19T10:20:18.743Z,10.61
2023-10-19T10:23:33.911Z,10.61
2023-10-19T10:26:59.603Z,10.64
2023-10-19T10:30:09.542Z,10.79
2023-10-19T10:33:43.088Z,10.91
2023-10-19T10:37:06.962Z,10.94
2023-10-19T10:40:10.618Z,10.95
2023-10-19T10:43:15.482Z,11.06
2023-10-19T10:46:18.406Z,11.18
2023-10-19T10:49:21.281Z,11.29
2023-10-19T10:52:36.184Z,11.35
2023-10-19T10:55:39.811Z,11.42
2023-10-19T10:58:46.433Z,11.42
2023-10-19T11:01:49.451Z,11.51
2023-10-19T11:04:52.189Z,11.54
2023-10-19T11:08:23.446Z,11.59
2023-10-19T11:11:27.832Z,11.61
2023-10-19T11:14:30.995Z,11.65
2023-10-19T11:17:34.216Z,11.72
2023-10-19T11:20:37.386Z,11.75
2023-10-19T11:23:49.570Z,11.73
2023-10-19T11:26:52.552Z,11.75
2023-10-19T11:30:08.786Z,11.75
2023-10-19T11:33:13.178Z,11.74
2023-10-19T11:36:20.357Z,11.77
2023-10-19T11:39:25.296Z,11.80
2023-10-19T11:42:28.297Z,11.70
2023-10-19T11:45:31.196Z,11.76
2023-10-19T11:48:35.420Z,11.76
2023-10-19T11:51:38.682Z,11.79
2023-10-19T11:54:41.356Z,11.78
2023-10-19T11:57:46.218Z,11.72
2023-10-19T12:00:49.181Z,11.76
2023-10-19T12:03:53.100Z,11.82
2023-10-19T12:06:56.813Z,11.65
2023-10-19T12:09:59.885Z,11.81
2023-10-19T12:13:09.087Z,11.81
2023-10-19T12:16:17.713Z,11.72
2023-10-19T12:19:21.181Z,11.76
2023-10-19T12:22:27.074Z,11.83
2023-10-19T12:25:49.941Z,11.91
2023-10-19T12:28:56.482Z,11.92
2023-10-19T12:31:59.352Z,11.95
2023-10-19T12:35:02.212Z,11.97
2023-10-19T12:38:07.672Z,11.93
2023-10-19T12:41:10.804Z,11.99
2023-10-19T12:44:13.897Z,11.99
2023-10-19T12:47:19.070Z,12.02
2023-10-19T12:50:24.201Z,12.06
2023-10-19T12:53:27.928Z,12.07
2023-10-19T12:56:30.813Z,12.10
2023-10-19T12:59:43.439Z,12.13
2023-10-19T13:02:46.242Z,12.19
2023-10-19T13:05:52.198Z,12.23
2023-10-19T13:08:54.994Z,12.27
2023-10-19T13:12:01.709Z,12.29
2023-10-19T13:15:15.034Z,12.28
2023-10-19T13:18:21.389Z,12.32
2023-10-19T13:21:29.516Z,12.35
2023-10-19T13:24:33.544Z,12.32
2023-10-19T13:27:36.878Z,12.38
2023-10-19T13:30:50.184Z,12.33
2023-10-19T13:33:56.251Z,12.40
2023-10-19T13:37:01.821Z,12.48
2023-10-19T13:40:07.916Z,12.51
2023-10-19T13:43:15.357Z,12.46
2023-10-19T13:46:21.780Z,12.54
2023-10-19T13:49:24.663Z,12.56
2023-10-19T13:52:27.758Z,12.54
2023-10-19T13:55:31.507Z,12.49
2023-10-19T13:58:34.704Z,12.51
2023-10-19T14:01:37.654Z,12.49
2023-10-19T14:04:40.566Z,12.54
2023-10-19T14:07:48.191Z,12.57
2023-10-19T14:10:53.218Z,12.57
2023-10-19T14:13:56.625Z,12.54
2023-10-19T14:17:00.009Z,12.37
2023-10-19T14:20:03.018Z,12.37
2023-10-19T14:23:06.377Z,12.44
2023-10-19T14:26:11.727Z,12.50
2023-10-19T14:29:15.053Z,12.58
2023-10-19T14:32:18.276Z,12.63
2023-10-19T14:35:24.423Z,12.67
2023-10-19T14:38:28.942Z,12.61
2023-10-19T14:41:34.544Z,12.61
2023-10-19T14:44:37.717Z,12.56
2023-10-19T14:47:45.071Z,12.56
2023-10-19T14:50:48.983Z,12.48
2023-10-19T14:53:51.872Z,12.51
2023-10-19T14:56:54.818Z,12.53
2023-10-19T15:00:16.618Z,12.39
2023-10-19T15:03:20.840Z,12.47
2023-10-19T15:06:33.106Z,12.45
2023-10-19T15:09:38.904Z,12.33
2023-10-19T15:12:45.486Z,12.41
2023-10-19T15:15:48.470Z,12.49
2023-10-19T15:18:54.286Z,12.45
2023-10-19T15:21:56.996Z,12.44
2023-10-19T15:25:05.467Z,12.50
2023-10-19T15:28:11.348Z,12.53
2023-10-19T15:31:14.796Z,12.56
2023-10-19T15:34:21.496Z,12.60
2023-10-19T15:37:24.437Z,12.56
2023-10-19T15:40:30.507Z,12.54
2023-10-19T15:43:33.386Z,12.52
2023-10-19T15:46:40.987Z,12.53
2023-10-19T15:50:00.229Z,12.48
2023-10-19T15:53:03.095Z,12.38
2023-10-19T15:56:06.042Z,12.46
2023-10-19T15:59:09.378Z,12.48
2023-10-19T16:02:12.969Z,12.42
2023-10-19T16:05:17.225Z,12.50
2023-10-19T16:08:20.115Z,12.51
2023-10-19T16:11:24.818Z,12.57
2023-10-19T16:14:28.192Z,12.57
2023-10-19T16:17:31.324Z,12.61
2023-10-19T16:20:36.549Z,12.48
2023-10-19T16:23:40.481Z,12.60
2023-10-19T16:26:43.437Z,12.59
2023-10-19T16:29:46.283Z,12.59
2023-10-19T16:32:49.303Z,12.64
2023-10-19T16:36:00.912Z,12.65
2023-10-19T16:39:03.978Z,12.52
2023-10-19T16:42:07.350Z,12.40
2023-10-19T16:45:13.231Z,12.48
2023-10-19T16:48:16.186Z,12.52
2023-10-19T16:51:19.365Z,12.51
2023-10-19T16:54:22.455Z,12.44
2023-10-19T16:57:29.011Z,12.36
2023-10-19T17:00:33.417Z,12.32
2023-10-19T17:03:37.576Z,12.33
2023-10-19T17:06:44.142Z,12.32
2023-10-19T17:09:49.179Z,12.29
2023-10-19T17:12:52.056Z,12.28
2023-10-19T17:15:56.049Z,12.32
2023-10-19T17:18:59.694Z,12.34
2023-10-19T17:22:03.751Z,12.31
2023-10-19T17:25:09.202Z,12.30
2023-10-19T17:28:12.736Z,12.28
2023-10-19T17:31:15.974Z,12.27
2023-10-19T17:34:21.750Z,12.18
2023-10-19T17:37:25.621Z,12.19
2023-10-19T17:40:28.929Z,12.21
2023-10-19T17:43:32.013Z,12.21
2023-10-19T17:46:36.153Z,12.23
2023-10-19T17:49:39.045Z,12.27
2023-10-19T17:52:45.473Z,12.15
2023-10-19T17:55:48.504Z,12.21
2023-10-19T17:58:53.789Z,12.22
2023-10-19T18:01:56.937Z,12.17
2023-10-19T18:05:02.303Z,12.16
2023-10-19T18:08:05.750Z,12.14
2023-10-19T18:11:15.141Z,12.16
2023-10-19T18:14:19.382Z,12.21
2023-10-19T18:17:24.907Z,12.24
2023-10-19T18:20:32.564Z,12.26
2023-10-19T18:23:36.566Z,12.28
2023-10-19T18:26:47.370Z,12.37
2023-10-19T18:29:50.811Z,12.37
2023-10-19T18:32:53.988Z,12.44
2023-10-19T18:36:06.391Z,12.47
2023-10-19T18:39:10.524Z,12.52
2023-10-19T18:42:13.994Z,12.56
2023-10-19T18:45:16.860Z,12.62
2023-10-19T18:48:19.746Z,12.60
2023-10-19T18:51:22.730Z,12.62
2023-10-19T18:54:26.525Z,12.68
2023-10-19T18:57:33.937Z,12.73
2023-10-19T19:00:38.662Z,12.76
2023-10-19T19:03:49.011Z,12.78
2023-10-19T19:06:53.127Z,12.81
2023-10-19T19:09:57.858Z,12.80
2023-10-19T19:13:01.319Z,12.77
2023-10-19T19:16:04.866Z,12.75
2023-10-19T19:19:10.224Z,12.73
2023-10-19T19:22:13.349Z,12.79
2023-10-19T19:25:18.609Z,12.83
2023-10-19T19:28:21.631Z,12.83
2023-10-19T19:31:27.580Z,12.85
2023-10-19T19:34:30.706Z,12.86
2023-10-19T19:37:39.355Z,12.85
2023-10-19T19:40:42.621Z,12.83
2023-10-19T19:43:45.901Z,12.81
2023-10-19T19:46:50.454Z,12.85
2023-10-19T19:49:53.246Z,12.86
2023-10-19T19:52:56.381Z,12.89
2023-10-19T19:56:01.702Z,12.92
2023-10-19T19:59:04.830Z,12.86
2023-10-19T20:02:10.180Z,12.87
2023-10-19T20:05:18.839Z,12.91
2023-10-19T20:08:24.229Z,12.92
2023-10-19T20:11:27.149Z,12.88
2023-10-19T20:14:30.012Z,12.91
2023-10-19T20:17:34.417Z,12.91
2023-10-19T20:20:37.363Z,12.91
2023-10-19T20:23:40.272Z,12.92
2023-10-19T20:26:44.046Z,12.94
2023-10-19T20:29:49.366Z,12.96
2023-10-19T20:32:57.014Z,12.96
2023-10-19T20:36:00.020Z,13.00
2023-10-19T20:39:04.174Z,13.04
2023-10-19T20:42:07.021Z,13.02
2023-10-19T20:45:10.859Z,13.02
2023-10-19T20:48:13.595Z,13.00
2023-10-19T20:51:20.435Z,12.97
2023-10-19T20:54:23.458Z,12.92
2023-10-19T20:57:26.451Z,12.91
2023-10-19T21:00:29.194Z,12.95
2023-10-19T21:03:32.099Z,12.99
2023-10-19T21:06:37.981Z,12.96
2023-10-19T21:09:40.659Z,12.94
2023-10-19T21:12:47.595Z,12.92
2023-10-19T21:15:51.189Z,12.98
2023-10-19T21:18:54.143Z,12.98
2023-10-19T21:21:57.157Z,12.98
2023-10-19T21:25:01.720Z,13.00
2023-10-19T21:28:05.569Z,13.01
2023-10-19T21:31:11.984Z,13.02
2023-10-19T21:34:15.060Z,13.04
2023-10-19T21:37:30.662Z,13.05
2023-10-19T21:40:33.723Z,13.09
2023-10-19T21:43:40.645Z,13.09
2023-10-19T21:46:43.328Z,13.07
2023-10-19T21:49:50.770Z,13.07
2023-10-19T21:52:53.723Z,13.09
2023-10-19T21:56:00.136Z,13.06
2023-10-19T21:59:03.039Z,13.03
2023-10-19T22:02:06.256Z,13.05
2023-10-19T22:05:22.066Z,13.01
2023-10-19T22:08:30.509Z,13.01
2023-10-19T22:11:35.587Z,12.99
2023-10-19T22:14:38.830Z,12.92
2023-10-19T22:17:41.569Z,12.93
2023-10-19T22:20:47.546Z,12.93
2023-10-19T22:23:50.612Z,12.95
2023-10-19T22:26:53.439Z,12.98
2023-10-19T22:29:56.839Z,12.98
2023-10-19T22:33:03.864Z,13.02
2023-10-19T22:36:06.705Z,12.85
2023-10-19T22:39:10.457Z,12.93
2023-10-19T22:42:13.977Z,12.97
2023-10-19T22:45:18.181Z,13.00
2023-10-19T22:48:20.905Z,12.87
2023-10-19T22:51:23.823Z,12.91
2023-10-19T22:54:28.936Z,12.95
2023-10-19T22:57:32.331Z,13.01
2023-10-19T23:00:35.340Z,13.03
2023-10-19T23:03:41.591Z,13.07
2023-10-19T23:06:44.282Z,13.07
2023-10-19T23:09:47.314Z,13.03
2023-10-19T23:12:52.685Z,13.04
2023-10-19T23:15:56.951Z,13.07
2023-10-19T23:19:01.370Z,13.06
2023-10-19T23:22:04.270Z,13.09
2023-10-19T23:25:10.598Z,13.12
2023-10-19T23:28:15.769Z,13.16
2023-10-19T23:31:24.951Z,13.15
2023-10-19T23:34:27.799Z,13.17
2023-10-19T23:37:33.469Z,13.19
2023-10-19T23:40:36.528Z,13.17
2023-10-19T23:43:39.420Z,13.11
2023-10-19T23:46:42.247Z,13.13
2023-10-19T23:49:46.370Z,13.20
2023-10-19T23:52:49.198Z,13.12
2023-10-19T23:55:53.047Z,13.20
2023-10-19T23:58:58.624Z,13.14
